createdAt,value
2023-09-17T00:00:20.303Z,0.00
2023-09-17T00:01:20.431Z,0.00
2023-09-17T00:02:20.328Z,0.00
2023-09-17T00:03:20.290Z,0.00
2023-09-17T00:04:20.263Z,0.00
2023-09-17T00:05:20.206Z,0.00
2023-09-17T00:06:20.229Z,0.00
2023-09-17T00:07:20.206Z,0.00
2023-09-17T00:08:20.215Z,0.00
2023-09-17T00:09:20.172Z,0.00
2023-09-17T00:10:20.229Z,0.00
2023-09-17T00:11:20.174Z,0.00
2023-09-17T00:12:20.160Z,0.00
2023-09-17T00:13:20.180Z,0.00
2023-09-17T00:14:20.176Z,0.00
2023-09-17T00:15:20.115Z,0.00
2023-09-17T00:16:20.296Z,0.00
2023-09-17T00:17:20.178Z,0.00
2023-09-17T00:18:20.112Z,0.00
2023-09-17T00:19:20.183Z,0.00
2023-09-17T00:20:20.071Z,0.00
2023-09-17T00:21:20.071Z,0.00
2023-09-17T00:22:20.091Z,0.00
2023-09-17T00:23:20.083Z,0.00
2023-09-17T00:24:20.036Z,0.00
2023-09-17T00:25:20.087Z,0.00
2023-09-17T00:26:20.033Z,0.00
2023-09-17T00:27:19.994Z,0.00
2023-09-17T00:28:20.009Z,0.00
2023-09-17T00:29:19.995Z,0.00
2023-09-17T00:30:20.082Z,0.00
2023-09-17T00:31:20.064Z,0.00
2023-09-17T00:32:19.956Z,0.00
2023-09-17T00:33:19.930Z,0.00
2023-09-17T00:34:19.990Z,0.00
2023-09-17T00:35:19.942Z,0.00
2023-09-17T00:36:20.009Z,0.00
2023-09-17T00:37:19.915Z,0.00
2023-09-17T00:38:19.895Z,0.00
2023-09-17T00:39:19.869Z,0.00
2023-09-17T00:40:19.921Z,0.00
2023-09-17T00:41:19.844Z,0.00
2023-09-17T00:42:19.834Z,0.00
2023-09-17T00:43:19.842Z,0.00
2023-09-17T00:44:19.838Z,0.00
2023-09-17T00:45:19.784Z,0.00
2023-09-17T00:46:19.875Z,0.00
2023-09-17T00:47:19.778Z,0.00
2023-09-17T00:48:19.779Z,0.00
2023-09-17T00:49:19.762Z,0.00
2023-09-17T00:50:19.735Z,0.00
2023-09-17T00:51:19.720Z,0.00
2023-09-17T00:52:19.752Z,0.00
2023-09-17T00:53:19.742Z,0.00
2023-09-17T00:54:19.715Z,0.00
2023-09-17T00:55:19.697Z,0.00
2023-09-17T00:56:19.714Z,0.00
2023-09-17T00:57:19.673Z,0.00
2023-09-17T00:58:19.727Z,0.00
2023-09-17T00:59:19.700Z,0.00
2023-09-17T01:00:19.648Z,0.00
2023-09-17T01:01:19.666Z,0.00
2023-09-17T01:02:19.747Z,0.00
2023-09-17T01:03:19.725Z,0.00
2023-09-17T01:04:19.635Z,0.00
2023-09-17T01:05:19.637Z,0.00
2023-09-17T01:06:19.570Z,0.00
2023-09-17T01:07:19.599Z,0.00
2023-09-17T01:08:19.606Z,0.00
2023-09-17T01:09:19.556Z,0.00
2023-09-17T01:10:19.585Z,0.00
2023-09-17T01:11:19.537Z,0.00
2023-09-17T01:12:19.549Z,0.00
2023-09-17T01:13:19.611Z,0.00
2023-09-17T01:14:19.496Z,0.00
2023-09-17T01:15:19.490Z,0.00
2023-09-17T01:16:19.525Z,0.00
2023-09-17T01:17:19.483Z,0.00
2023-09-17T01:18:19.457Z,0.00
2023-09-17T01:19:19.472Z,0.00
2023-09-17T01:20:19.436Z,0.00
2023-09-17T01:21:19.487Z,0.00
2023-09-17T01:22:19.453Z,0.00
2023-09-17T01:23:19.403Z,0.00
2023-09-17T01:24:19.401Z,0.00
2023-09-17T01:25:19.568Z,0.00
2023-09-17T01:26:19.371Z,0.00
2023-09-17T01:27:19.395Z,0.00
2023-09-17T01:28:19.359Z,0.00
2023-09-17T01:29:19.338Z,0.00
2023-09-17T01:30:19.314Z,0.00
2023-09-17T01:31:19.356Z,0.00
2023-09-17T01:32:19.297Z,0.00
2023-09-17T01:33:19.298Z,0.00
2023-09-17T01:34:19.323Z,0.00
2023-09-17T01:35:19.280Z,0.00
2023-09-17T01:36:19.274Z,0.00
2023-09-17T01:37:19.555Z,0.00
2023-09-17T01:38:19.268Z,0.00
2023-09-17T01:39:19.250Z,0.00
2023-09-17T01:40:19.280Z,0.00
2023-09-17T01:41:19.221Z,0.00
2023-09-17T01:42:19.281Z,0.00
2023-09-17T01:43:19.215Z,0.00
2023-09-17T01:44:19.244Z,0.00
2023-09-17T01:45:19.196Z,0.00
2023-09-17T01:46:19.209Z,0.00
2023-09-17T01:47:19.258Z,0.00
2023-09-17T01:48:19.133Z,0.00
2023-09-17T01:49:19.191Z,0.00
2023-09-17T01:50:19.215Z,0.00
2023-09-17T01:51:19.113Z,0.00
2023-09-17T01:52:19.110Z,0.00
2023-09-17T01:53:19.155Z,0.00
2023-09-17T01:54:19.093Z,0.00
2023-09-17T01:55:19.099Z,0.00
2023-09-17T01:56:19.069Z,0.00
2023-09-17T01:57:19.054Z,0.00
2023-09-17T01:58:19.028Z,0.00
2023-09-17T01:59:19.066Z,0.00
2023-09-17T02:00:19.063Z,0.00
2023-09-17T02:01:19.163Z,0.00
2023-09-17T02:02:19.070Z,0.00
2023-09-17T02:03:19.065Z,0.00
2023-09-17T02:04:19.062Z,0.00
2023-09-17T02:05:18.997Z,0.00
2023-09-17T02:06:18.948Z,0.00
2023-09-17T02:07:18.970Z,0.00
2023-09-17T02:08:18.998Z,0.00
2023-09-17T02:09:18.941Z,0.00
2023-09-17T02:10:18.937Z,0.00
2023-09-17T02:11:18.901Z,0.00
2023-09-17T02:12:18.876Z,0.00
2023-09-17T02:13:18.939Z,0.00
2023-09-17T02:14:18.869Z,0.00
2023-09-17T02:15:18.887Z,0.00
2023-09-17T02:16:18.889Z,0.00
2023-09-17T02:17:18.844Z,0.00
2023-09-17T02:18:18.833Z,0.00
2023-09-17T02:19:18.846Z,0.00
2023-09-17T02:20:18.802Z,0.00
2023-09-17T02:21:18.796Z,0.00
2023-09-17T02:22:18.785Z,0.00
2023-09-17T02:23:18.795Z,0.00
2023-09-17T02:24:18.741Z,0.00
2023-09-17T02:25:18.765Z,0.00
2023-09-17T02:26:18.754Z,0.00
2023-09-17T02:27:18.738Z,0.00
2023-09-17T02:28:18.719Z,0.00
2023-09-17T02:29:18.682Z,0.00
2023-09-17T02:30:18.671Z,0.00
2023-09-17T02:31:18.718Z,0.00
2023-09-17T02:32:18.695Z,0.00
2023-09-17T02:33:18.674Z,0.00
2023-09-17T02:34:18.659Z,0.00
2023-09-17T02:35:18.630Z,0.00
2023-09-17T02:36:18.674Z,0.00
2023-09-17T02:37:18.694Z,0.00
2023-09-17T02:38:18.696Z,0.00
2023-09-17T02:39:18.623Z,0.00
2023-09-17T02:40:18.642Z,0.00
2023-09-17T02:41:18.645Z,0.00
2023-09-17T02:42:18.593Z,0.00
2023-09-17T02:43:18.580Z,0.00
2023-09-17T02:44:18.517Z,0.00
2023-09-17T02:45:18.525Z,0.00
2023-09-17T02:46:18.612Z,0.00
2023-09-17T02:47:18.685Z,0.00
2023-09-17T02:48:18.510Z,0.00
2023-09-17T02:49:18.542Z,0.00
2023-09-17T02:50:18.476Z,0.00
2023-09-17T02:51:18.487Z,0.00
2023-09-17T02:52:18.487Z,0.00
2023-09-17T02:53:20.408Z,0.00
2023-09-17T02:54:18.464Z,0.00
2023-09-17T02:55:18.465Z,0.00
2023-09-17T02:56:18.421Z,0.00
2023-09-17T02:57:18.430Z,0.00
2023-09-17T02:58:18.400Z,0.00
2023-09-17T02:59:18.381Z,0.00
2023-09-17T03:00:18.381Z,0.00
2023-09-17T03:01:18.497Z,0.00
2023-09-17T03:02:18.460Z,0.00
2023-09-17T03:03:18.490Z,0.00
2023-09-17T03:04:18.341Z,0.00
2023-09-17T03:05:18.334Z,0.00
2023-09-17T03:06:18.312Z,0.00
2023-09-17T03:07:18.353Z,0.00
2023-09-17T03:08:18.294Z,0.00
2023-09-17T03:09:18.300Z,0.00
2023-09-17T03:10:18.302Z,0.00
2023-09-17T03:11:18.302Z,0.00
2023-09-17T03:12:18.245Z,0.00
2023-09-17T03:13:18.278Z,0.00
2023-09-17T03:14:18.282Z,0.00
2023-09-17T03:15:18.206Z,0.00
2023-09-17T03:16:18.296Z,0.00
2023-09-17T03:17:18.249Z,0.00
2023-09-17T03:18:18.170Z,0.00
2023-09-17T03:19:18.198Z,0.00
2023-09-17T03:20:18.286Z,0.00
2023-09-17T03:21:18.189Z,0.00
2023-09-17T03:22:18.237Z,0.00
2023-09-17T03:23:18.154Z,0.00
2023-09-17T03:24:18.122Z,0.00
2023-09-17T03:25:18.155Z,0.00
2023-09-17T03:26:18.074Z,0.00
2023-09-17T03:27:18.068Z,0.00
2023-09-17T03:28:18.086Z,0.00
2023-09-17T03:29:18.084Z,0.00
2023-09-17T03:30:18.035Z,0.00
2023-09-17T03:31:18.130Z,0.00
2023-09-17T03:32:18.010Z,0.00
2023-09-17T03:33:18.072Z,0.00
2023-09-17T03:34:18.031Z,0.00
2023-09-17T03:35:17.999Z,0.00
2023-09-17T03:36:17.994Z,0.00
2023-09-17T03:37:18.032Z,0.00
2023-09-17T03:38:17.982Z,0.00
2023-09-17T03:39:17.969Z,0.00
2023-09-17T03:40:17.989Z,0.00
2023-09-17T03:41:17.932Z,0.00
2023-09-17T03:42:17.944Z,0.00
2023-09-17T03:43:18.007Z,0.00
2023-09-17T03:44:17.920Z,0.00
2023-09-17T03:45:17.927Z,0.00
2023-09-17T03:46:17.907Z,0.00
2023-09-17T03:47:17.914Z,0.00
2023-09-17T03:48:17.870Z,0.00
2023-09-17T03:49:17.894Z,0.00
2023-09-17T03:50:20.850Z,0.00
2023-09-17T03:51:17.855Z,0.00
2023-09-17T03:52:17.852Z,0.00
2023-09-17T03:53:17.799Z,0.00
2023-09-17T03:54:17.777Z,0.00
2023-09-17T03:55:17.848Z,0.00
2023-09-17T03:56:17.776Z,0.00
2023-09-17T03:57:17.769Z,0.00
2023-09-17T03:58:17.827Z,0.00
2023-09-17T03:59:17.757Z,0.00
2023-09-17T04:00:17.731Z,0.00
2023-09-17T04:01:17.802Z,0.00
2023-09-17T04:02:17.761Z,0.00
2023-09-17T04:03:17.730Z,0.00
2023-09-17T04:04:17.751Z,0.00
2023-09-17T04:05:17.695Z,0.00
2023-09-17T04:06:17.715Z,0.00
2023-09-17T04:07:17.713Z,0.00
2023-09-17T04:08:17.684Z,0.00
2023-09-17T04:09:17.662Z,0.00
2023-09-17T04:10:17.696Z,0.00
2023-09-17T04:11:17.613Z,0.00
2023-09-17T04:12:17.606Z,0.00
2023-09-17T04:13:17.624Z,0.00
2023-09-17T04:14:17.582Z,0.00
2023-09-17T04:15:17.617Z,0.00
2023-09-17T04:16:17.620Z,0.00
2023-09-17T04:17:17.625Z,0.00
2023-09-17T04:18:17.538Z,0.00
2023-09-17T04:19:17.556Z,0.00
2023-09-17T04:20:17.535Z,0.00
2023-09-17T04:21:17.527Z,0.00
2023-09-17T04:22:17.546Z,0.00
2023-09-17T04:23:17.480Z,0.00
2023-09-17T04:24:17.507Z,0.00
2023-09-17T04:25:18.226Z,1.00
2023-09-17T04:26:17.418Z,1.00
2023-09-17T04:27:17.406Z,1.00
2023-09-17T04:28:17.435Z,1.00
2023-09-17T04:29:17.391Z,1.00
2023-09-17T04:30:17.370Z,2.00
2023-09-17T04:31:17.405Z,2.00
2023-09-17T04:32:17.490Z,2.00
2023-09-17T04:33:17.469Z,1.00
2023-09-17T04:34:17.424Z,0.00
2023-09-17T04:35:17.422Z,4.00
2023-09-17T04:36:17.278Z,3.00
2023-09-17T04:37:17.305Z,6.00
2023-09-17T04:38:17.282Z,3.00
2023-09-17T04:39:17.348Z,5.00
2023-09-17T04:40:17.338Z,2.00
2023-09-17T04:41:17.244Z,7.00
2023-09-17T04:42:17.235Z,3.00
2023-09-17T04:43:17.305Z,5.00
2023-09-17T04:44:17.214Z,10.00
2023-09-17T04:45:17.212Z,7.00
2023-09-17T04:46:17.228Z,9.00
2023-09-17T04:47:17.193Z,9.00
2023-09-17T04:48:17.233Z,10.00
2023-09-17T04:49:17.159Z,13.00
2023-09-17T04:50:17.146Z,20.00
2023-09-17T04:51:17.184Z,15.00
2023-09-17T04:52:17.136Z,19.00
2023-09-17T04:53:17.105Z,25.00
2023-09-17T04:54:17.099Z,31.00
2023-09-17T04:55:17.083Z,38.00
2023-09-17T04:56:17.072Z,43.00
2023-09-17T04:57:17.118Z,45.00
2023-09-17T04:58:17.057Z,60.00
2023-09-17T04:59:17.053Z,76.00
2023-09-17T05:00:17.071Z,94.00
2023-09-17T05:01:17.132Z,103.00
2023-09-17T05:02:17.090Z,106.00
2023-09-17T05:03:17.086Z,114.00
2023-09-17T05:04:16.988Z,124.00
2023-09-17T05:05:16.995Z,121.00
2023-09-17T05:06:17.018Z,122.00
2023-09-17T05:07:16.967Z,132.00
2023-09-17T05:08:16.956Z,157.00
2023-09-17T05:09:16.982Z,182.00
2023-09-17T05:10:16.932Z,201.00
2023-09-17T05:11:16.953Z,225.00
2023-09-17T05:12:16.931Z,246.00
2023-09-17T05:13:16.911Z,273.00
2023-09-17T05:14:16.895Z,314.00
2023-09-17T05:15:16.892Z,348.00
2023-09-17T05:16:16.918Z,367.00
2023-09-17T05:17:16.846Z,390.00
2023-09-17T05:18:16.853Z,439.00
2023-09-17T05:19:16.833Z,460.00
2023-09-17T05:20:16.858Z,447.00
2023-09-17T05:21:16.810Z,430.00
2023-09-17T05:22:16.798Z,466.00
2023-09-17T05:23:16.791Z,580.00
2023-09-17T05:24:16.776Z,673.00
2023-09-17T05:25:16.802Z,716.00
2023-09-17T05:26:16.777Z,743.00
2023-09-17T05:27:16.746Z,754.00
2023-09-17T05:28:16.766Z,778.00
2023-09-17T05:29:16.989Z,815.00
2023-09-17T05:30:16.786Z,901.00
2023-09-17T05:31:16.731Z,958.00
2023-09-17T05:32:16.762Z,949.00
2023-09-17T05:33:16.735Z,891.00
2023-09-17T05:34:16.712Z,862.00
2023-09-17T05:35:16.690Z,857.00
2023-09-17T05:36:16.674Z,812.00
2023-09-17T05:37:16.662Z,795.00
2023-09-17T05:38:16.634Z,799.00
2023-09-17T05:39:16.651Z,788.00
2023-09-17T05:40:16.673Z,767.00
2023-09-17T05:41:16.628Z,799.00
2023-09-17T05:42:16.620Z,779.00
2023-09-17T05:43:16.683Z,822.00
2023-09-17T05:44:16.593Z,839.00
2023-09-17T05:45:16.559Z,793.00
2023-09-17T05:46:16.580Z,787.00
2023-09-17T05:47:16.561Z,1005.00
2023-09-17T05:48:16.552Z,1131.00
2023-09-17T05:49:16.558Z,1096.00
2023-09-17T05:50:16.637Z,1138.00
2023-09-17T05:51:16.490Z,1140.00
2023-09-17T05:52:16.554Z,1166.00
2023-09-17T05:53:16.499Z,1308.00
2023-09-17T05:54:16.468Z,1100.00
2023-09-17T05:55:16.454Z,1084.00
2023-09-17T05:56:16.452Z,936.00
2023-09-17T05:57:16.425Z,923.00
2023-09-17T05:58:16.440Z,958.00
2023-09-17T05:59:16.459Z,971.00
2023-09-17T06:00:16.419Z,994.00
2023-09-17T06:01:16.425Z,1009.00
2023-09-17T06:02:16.479Z,1017.00
2023-09-17T06:03:16.552Z,1070.00
2023-09-17T06:04:16.367Z,1169.00
2023-09-17T06:05:16.357Z,1239.00
2023-09-17T06:06:16.394Z,1299.00
2023-09-17T06:07:16.335Z,1389.00
2023-09-17T06:08:16.316Z,1468.00
2023-09-17T06:09:16.403Z,1526.00
2023-09-17T06:10:17.199Z,1458.00
2023-09-17T06:11:16.326Z,2067.00
2023-09-17T06:12:16.303Z,1505.00
2023-09-17T06:13:16.247Z,2834.00
2023-09-17T06:14:16.245Z,2615.00
2023-09-17T06:15:16.249Z,2043.00
2023-09-17T06:16:16.265Z,3206.00
2023-09-17T06:17:16.242Z,2526.00
2023-09-17T06:18:16.213Z,2689.00
2023-09-17T06:19:16.191Z,2744.00
2023-09-17T06:20:16.196Z,2771.00
2023-09-17T06:21:16.219Z,2801.00
2023-09-17T06:22:16.160Z,2806.00
2023-09-17T06:23:16.140Z,2832.00
2023-09-17T06:24:16.153Z,2892.00
2023-09-17T06:25:16.121Z,2327.00
2023-09-17T06:26:16.146Z,3328.00
2023-09-17T06:27:16.118Z,3791.00
2023-09-17T06:28:16.092Z,4710.00
2023-09-17T06:29:16.094Z,3670.00
2023-09-17T06:30:16.224Z,3261.00
2023-09-17T06:31:16.716Z,3249.00
2023-09-17T06:32:16.068Z,3070.00
2023-09-17T06:33:16.058Z,3349.00
2023-09-17T06:34:16.043Z,3115.00
2023-09-17T06:35:16.047Z,3318.00
2023-09-17T06:36:16.016Z,3257.00
2023-09-17T06:37:16.012Z,3279.00
2023-09-17T06:38:16.013Z,3427.00
2023-09-17T06:39:15.995Z,3161.00
2023-09-17T06:40:15.997Z,3155.00
2023-09-17T06:41:15.971Z,2721.00
2023-09-17T06:42:15.963Z,3526.00
2023-09-17T06:43:15.955Z,3169.00
2023-09-17T06:44:15.943Z,3921.00
2023-09-17T06:45:15.936Z,4154.00
2023-09-17T06:46:15.964Z,4257.00
2023-09-17T06:47:15.965Z,4624.00
2023-09-17T06:48:15.961Z,3951.00
2023-09-17T06:49:15.912Z,3760.00
2023-09-17T06:50:15.887Z,3332.00
2023-09-17T06:51:15.883Z,3837.00
2023-09-17T06:52:15.853Z,2816.00
2023-09-17T06:53:15.842Z,5330.00
2023-09-17T06:54:15.859Z,3811.00
2023-09-17T06:55:15.816Z,2693.00
2023-09-17T06:56:15.813Z,5273.00
2023-09-17T06:57:15.786Z,4645.00
2023-09-17T06:58:15.796Z,5701.00
2023-09-17T06:59:15.790Z,4238.00
2023-09-17T07:00:15.765Z,4967.00
2023-09-17T07:01:15.825Z,4453.00
2023-09-17T07:02:15.754Z,5817.00
2023-09-17T07:03:15.751Z,4134.00
2023-09-17T07:04:15.774Z,5432.00
2023-09-17T07:05:15.807Z,4120.00
2023-09-17T07:06:15.732Z,4285.00
2023-09-17T07:07:15.751Z,4340.00
2023-09-17T07:08:15.699Z,3807.00
2023-09-17T07:09:15.664Z,4118.00
2023-09-17T07:10:15.664Z,3316.00
2023-09-17T07:11:15.654Z,4903.00
2023-09-17T07:12:15.655Z,4826.00
2023-09-17T07:13:15.647Z,4549.00
2023-09-17T07:14:15.671Z,4513.00
2023-09-17T07:15:15.617Z,3554.00
2023-09-17T07:16:15.626Z,5112.00
2023-09-17T07:17:15.673Z,3998.00
2023-09-17T07:18:15.648Z,4113.00
2023-09-17T07:19:15.599Z,3936.00
2023-09-17T07:20:15.559Z,3977.00
2023-09-17T07:21:15.579Z,2663.00
2023-09-17T07:22:15.556Z,5450.00
2023-09-17T07:23:15.503Z,4742.00
2023-09-17T07:24:15.570Z,4238.00
2023-09-17T07:25:15.500Z,5772.00
2023-09-17T07:26:15.500Z,4239.00
2023-09-17T07:27:15.520Z,5297.00
2023-09-17T07:28:15.470Z,4670.00
2023-09-17T07:29:15.484Z,3863.00
2023-09-17T07:30:15.464Z,5276.00
2023-09-17T07:31:15.514Z,5283.00
2023-09-17T07:32:15.464Z,3750.00
2023-09-17T07:33:15.421Z,5500.00
2023-09-17T07:34:15.404Z,5777.00
2023-09-17T07:35:15.386Z,5764.00
2023-09-17T07:36:15.438Z,6114.00
2023-09-17T07:37:15.366Z,6024.00
2023-09-17T07:38:15.409Z,5287.00
2023-09-17T07:39:15.342Z,6167.00
2023-09-17T07:40:15.355Z,4893.00
2023-09-17T07:41:15.381Z,6452.00
2023-09-17T07:42:15.341Z,4595.00
2023-09-17T07:43:15.351Z,4435.00
2023-09-17T07:44:15.305Z,5317.00
2023-09-17T07:45:15.343Z,5840.00
2023-09-17T07:46:15.301Z,5860.00
2023-09-17T07:47:15.327Z,5712.00
2023-09-17T07:48:15.260Z,5775.00
2023-09-17T07:49:15.257Z,5936.00
2023-09-17T07:50:15.274Z,5732.00
2023-09-17T07:51:15.239Z,6216.00
2023-09-17T07:52:15.292Z,5675.00
2023-09-17T07:53:15.202Z,6425.00
2023-09-17T07:54:15.225Z,5884.00
2023-09-17T07:55:15.235Z,6218.00
2023-09-17T07:56:17.433Z,6169.00
2023-09-17T07:57:15.165Z,6139.00
2023-09-17T07:58:15.166Z,6145.00
2023-09-17T07:59:15.170Z,6177.00
2023-09-17T08:00:15.132Z,6509.00
2023-09-17T08:01:15.131Z,5957.00
2023-09-17T08:02:15.254Z,5353.00
2023-09-17T08:03:15.267Z,5608.00
2023-09-17T08:04:15.236Z,5902.00
2023-09-17T08:05:15.168Z,5428.00
2023-09-17T08:06:15.116Z,5821.00
2023-09-17T08:07:15.080Z,6083.00
2023-09-17T08:08:15.072Z,5903.00
2023-09-17T08:09:15.062Z,6875.00
2023-09-17T08:10:15.068Z,6103.00
2023-09-17T08:11:15.014Z,5503.00
2023-09-17T08:12:15.013Z,5019.00
2023-09-17T08:13:15.098Z,4216.00
2023-09-17T08:14:15.017Z,5233.00
2023-09-17T08:15:14.961Z,4910.00
2023-09-17T08:16:15.011Z,4840.00
2023-09-17T08:17:15.006Z,4881.00
2023-09-17T08:18:15.017Z,4708.00
2023-09-17T08:19:15.645Z,4288.00
2023-09-17T08:20:14.917Z,5443.00
2023-09-17T08:21:14.920Z,4785.00
2023-09-17T08:22:14.921Z,4691.00
2023-09-17T08:23:14.918Z,4580.00
2023-09-17T08:24:14.878Z,4207.00
2023-09-17T08:25:14.881Z,4224.00
2023-09-17T08:26:14.881Z,3758.00
2023-09-17T08:27:14.890Z,5661.00
2023-09-17T08:28:14.839Z,4869.00
2023-09-17T08:29:14.839Z,4490.00
2023-09-17T08:30:14.821Z,4938.00
2023-09-17T08:31:14.862Z,4302.00
2023-09-17T08:32:14.815Z,4347.00
2023-09-17T08:33:14.787Z,4050.00
2023-09-17T08:34:14.772Z,4145.00
2023-09-17T08:35:14.762Z,2552.00
2023-09-17T08:36:14.774Z,5256.00
2023-09-17T08:37:14.788Z,4193.00
2023-09-17T08:38:14.723Z,3647.00
2023-09-17T08:39:14.740Z,3220.00
2023-09-17T08:40:14.699Z,3742.00
2023-09-17T08:41:14.761Z,3311.00
2023-09-17T08:42:14.720Z,3139.00
2023-09-17T08:43:14.666Z,2829.00
2023-09-17T08:44:14.684Z,4223.00
2023-09-17T08:45:14.678Z,3681.00
2023-09-17T08:46:14.705Z,3500.00
2023-09-17T08:47:14.671Z,3674.00
2023-09-17T08:48:14.635Z,3417.00
2023-09-17T08:49:14.672Z,3540.00
2023-09-17T08:50:14.628Z,3599.00
2023-09-17T08:51:14.609Z,3410.00
2023-09-17T08:52:14.611Z,2269.00
2023-09-17T08:53:14.641Z,5282.00
2023-09-17T08:54:14.576Z,4132.00
2023-09-17T08:55:14.570Z,4229.00
2023-09-17T08:56:14.553Z,4378.00
2023-09-17T08:57:14.537Z,2588.00
2023-09-17T08:58:14.537Z,3833.00
2023-09-17T08:59:14.603Z,4308.00
2023-09-17T09:00:14.522Z,4109.00
2023-09-17T09:01:14.595Z,4496.00
2023-09-17T09:02:14.599Z,4847.00
2023-09-17T09:03:14.512Z,1996.00
2023-09-17T09:04:14.596Z,4694.00
2023-09-17T09:05:14.498Z,4622.00
2023-09-17T09:06:14.450Z,4486.00
2023-09-17T09:07:14.425Z,4452.00
2023-09-17T09:08:14.448Z,4487.00
2023-09-17T09:09:14.425Z,4424.00
2023-09-17T09:10:14.405Z,4317.00
2023-09-17T09:11:14.409Z,4194.00
2023-09-17T09:12:14.383Z,4180.00
2023-09-17T09:13:14.374Z,3899.00
2023-09-17T09:14:14.406Z,4115.00
2023-09-17T09:15:14.353Z,4195.00
2023-09-17T09:16:14.346Z,4438.00
2023-09-17T09:17:14.316Z,4223.00
2023-09-17T09:18:14.308Z,4263.00
2023-09-17T09:19:14.306Z,4435.00
2023-09-17T09:20:14.293Z,4291.00
2023-09-17T09:21:14.265Z,4636.00
2023-09-17T09:22:14.280Z,4781.00
2023-09-17T09:23:14.278Z,4899.00
2023-09-17T09:24:14.254Z,4825.00
2023-09-17T09:25:14.242Z,4468.00
2023-09-17T09:26:14.228Z,4724.00
2023-09-17T09:27:14.223Z,4707.00
2023-09-17T09:28:14.230Z,4653.00
2023-09-17T09:29:14.207Z,4539.00
2023-09-17T09:30:14.188Z,4671.00
2023-09-17T09:31:14.180Z,4859.00
2023-09-17T09:32:14.232Z,4774.00
2023-09-17T09:33:14.366Z,4807.00
2023-09-17T09:34:14.147Z,4625.00
2023-09-17T09:35:14.146Z,4699.00
2023-09-17T09:36:14.125Z,4326.00
2023-09-17T09:37:14.129Z,4522.00
2023-09-17T09:38:14.113Z,4405.00
2023-09-17T09:39:14.095Z,4427.00
2023-09-17T09:40:14.081Z,4552.00
2023-09-17T09:41:14.370Z,4670.00
2023-09-17T09:42:14.067Z,4627.00
2023-09-17T09:43:14.111Z,4609.00
2023-09-17T09:44:14.056Z,4406.00
2023-09-17T09:45:14.052Z,4640.00
2023-09-17T09:46:14.113Z,4335.00
2023-09-17T09:47:14.028Z,4165.00
2023-09-17T09:48:13.999Z,4578.00
2023-09-17T09:49:14.007Z,4461.00
2023-09-17T09:50:13.968Z,4533.00
2023-09-17T09:51:14.002Z,4601.00
2023-09-17T09:52:13.963Z,4506.00
2023-09-17T09:53:13.949Z,4155.00
2023-09-17T09:54:13.938Z,4528.00
2023-09-17T09:55:13.925Z,4257.00
2023-09-17T09:56:13.929Z,4286.00
2023-09-17T09:57:13.911Z,4454.00
2023-09-17T09:58:13.916Z,4627.00
2023-09-17T09:59:13.912Z,4462.00
2023-09-17T10:00:13.964Z,4609.00
2023-09-17T10:01:13.912Z,4523.00
2023-09-17T10:02:13.945Z,4753.00
2023-09-17T10:03:13.914Z,4634.00
2023-09-17T10:04:13.905Z,4466.00
2023-09-17T10:05:13.909Z,4184.00
2023-09-17T10:06:13.813Z,4357.00
2023-09-17T10:07:13.812Z,4432.00
2023-09-17T10:08:13.828Z,4261.00
2023-09-17T10:09:13.772Z,4378.00
2023-09-17T10:10:13.776Z,4239.00
2023-09-17T10:11:13.749Z,4218.00
2023-09-17T10:12:13.732Z,4174.00
2023-09-17T10:13:14.916Z,4344.00
2023-09-17T10:14:13.786Z,4291.00
2023-09-17T10:15:13.734Z,4318.00
2023-09-17T10:16:13.805Z,4222.00
2023-09-17T10:17:13.701Z,4121.00
2023-09-17T10:18:13.698Z,4230.00
2023-09-17T10:19:13.731Z,4077.00
2023-09-17T10:20:13.663Z,3997.00
2023-09-17T10:21:13.664Z,4302.00
2023-09-17T10:22:13.639Z,4165.00
2023-09-17T10:23:13.641Z,4365.00
2023-09-17T10:24:13.645Z,4222.00
2023-09-17T10:25:13.614Z,4187.00
2023-09-17T10:26:13.602Z,4435.00
2023-09-17T10:27:13.592Z,4533.00
2023-09-17T10:28:13.605Z,4317.00
2023-09-17T10:29:13.596Z,4289.00
2023-09-17T10:30:13.557Z,4515.00
2023-09-17T10:31:13.598Z,4336.00
2023-09-17T10:32:13.607Z,4488.00
2023-09-17T10:33:13.613Z,4414.00
2023-09-17T10:34:13.512Z,4392.00
2023-09-17T10:35:13.502Z,4556.00
2023-09-17T10:36:13.515Z,4544.00
2023-09-17T10:37:13.509Z,4312.00
2023-09-17T10:38:13.542Z,4390.00
2023-09-17T10:39:13.467Z,4404.00
2023-09-17T10:40:13.444Z,4333.00
2023-09-17T10:41:13.461Z,4547.00
2023-09-17T10:42:13.542Z,4340.00
2023-09-17T10:43:13.445Z,4404.00
2023-09-17T10:44:13.423Z,4684.00
2023-09-17T10:45:13.397Z,4602.00
2023-09-17T10:46:13.435Z,4756.00
2023-09-17T10:47:13.432Z,4595.00
2023-09-17T10:48:13.386Z,4908.00
2023-09-17T10:49:13.381Z,4802.00
2023-09-17T10:50:13.374Z,4727.00
2023-09-17T10:51:13.370Z,4834.00
2023-09-17T10:52:13.356Z,4917.00
2023-09-17T10:53:13.426Z,4691.00
2023-09-17T10:54:13.362Z,4725.00
2023-09-17T10:55:13.312Z,4826.00
2023-09-17T10:56:13.305Z,4833.00
2023-09-17T10:57:13.282Z,4741.00
2023-09-17T10:58:13.266Z,5383.00
2023-09-17T10:59:13.244Z,4995.00
2023-09-17T11:00:13.233Z,5028.00
2023-09-17T11:01:13.258Z,4715.00
2023-09-17T11:02:13.246Z,4952.00
2023-09-17T11:03:13.262Z,4890.00
2023-09-17T11:04:13.187Z,4867.00
2023-09-17T11:05:13.236Z,4819.00
2023-09-17T11:06:13.182Z,4425.00
2023-09-17T11:07:13.166Z,4701.00
2023-09-17T11:08:13.181Z,4929.00
2023-09-17T11:09:13.144Z,4873.00
2023-09-17T11:10:21.557Z,5045.00
2023-09-17T11:11:13.152Z,4937.00
2023-09-17T11:12:13.111Z,4921.00
2023-09-17T11:13:13.100Z,4842.00
2023-09-17T11:14:13.132Z,4884.00
2023-09-17T11:15:13.115Z,5184.00
2023-09-17T11:16:13.085Z,4801.00
2023-09-17T11:17:13.197Z,5111.00
2023-09-17T11:18:13.083Z,4712.00
2023-09-17T11:19:13.235Z,4849.00
2023-09-17T11:20:13.099Z,4687.00
2023-09-17T11:21:13.021Z,4707.00
2023-09-17T11:22:13.020Z,4412.00
2023-09-17T11:23:13.020Z,4366.00
2023-09-17T11:24:13.005Z,4544.00
2023-09-17T11:25:12.998Z,4525.00
2023-09-17T11:26:13.074Z,4633.00
2023-09-17T11:27:12.998Z,4376.00
2023-09-17T11:28:12.963Z,4560.00
2023-09-17T11:29:12.987Z,4418.00
2023-09-17T11:30:12.937Z,4540.00
2023-09-17T11:31:12.995Z,4379.00
2023-09-17T11:32:13.055Z,4423.00
2023-09-17T11:33:12.939Z,4479.00
2023-09-17T11:34:12.895Z,4533.00
2023-09-17T11:35:12.965Z,4528.00
2023-09-17T11:36:12.868Z,4661.00
2023-09-17T11:37:12.858Z,4774.00
2023-09-17T11:38:12.875Z,4695.00
2023-09-17T11:39:12.862Z,5090.00
2023-09-17T11:40:12.823Z,4725.00
2023-09-17T11:41:12.863Z,4879.00
2023-09-17T11:42:12.811Z,5030.00
2023-09-17T11:43:12.828Z,4967.00
2023-09-17T11:44:12.875Z,5065.00
2023-09-17T11:45:12.784Z,4960.00
2023-09-17T11:46:12.848Z,5039.00
2023-09-17T11:47:12.842Z,5014.00
2023-09-17T11:48:12.790Z,5204.00
2023-09-17T11:49:12.747Z,5228.00
2023-09-17T11:50:12.783Z,5235.00
2023-09-17T11:51:12.729Z,5156.00
2023-09-17T11:52:12.725Z,5227.00
2023-09-17T11:53:12.770Z,5262.00
2023-09-17T11:54:12.741Z,5197.00
2023-09-17T11:55:12.784Z,5177.00
2023-09-17T11:56:12.715Z,5168.00
2023-09-17T11:57:12.730Z,5364.00
2023-09-17T11:58:12.653Z,5161.00
2023-09-17T11:59:12.664Z,5357.00
2023-09-17T12:00:12.610Z,5376.00
2023-09-17T12:01:12.602Z,5357.00
2023-09-17T12:02:12.660Z,5170.00
2023-09-17T12:03:12.685Z,5367.00
2023-09-17T12:04:12.611Z,5459.00
2023-09-17T12:05:12.597Z,5477.00
2023-09-17T12:06:12.574Z,5588.00
2023-09-17T12:07:12.565Z,5288.00
2023-09-17T12:08:12.587Z,5210.00
2023-09-17T12:09:12.535Z,5340.00
2023-09-17T12:10:12.521Z,5557.00
2023-09-17T12:11:12.578Z,5659.00
2023-09-17T12:12:12.517Z,5586.00
2023-09-17T12:13:12.492Z,5483.00
2023-09-17T12:14:12.534Z,5910.00
2023-09-17T12:15:12.479Z,5748.00
2023-09-17T12:16:17.215Z,5746.00
2023-09-17T12:17:12.552Z,5685.00
2023-09-17T12:18:12.475Z,5754.00
2023-09-17T12:19:18.456Z,5690.00
2023-09-17T12:20:12.453Z,5455.00
2023-09-17T12:21:12.425Z,5874.00
2023-09-17T12:22:12.384Z,5388.00
2023-09-17T12:23:12.424Z,5816.00
2023-09-17T12:24:12.367Z,5784.00
2023-09-17T12:25:12.377Z,5772.00
2023-09-17T12:26:12.359Z,5787.00
2023-09-17T12:27:12.350Z,5845.00
2023-09-17T12:28:12.340Z,5802.00
2023-09-17T12:29:12.410Z,5560.00
2023-09-17T12:30:12.340Z,5689.00
2023-09-17T12:31:12.349Z,5589.00
2023-09-17T12:32:12.346Z,5776.00
2023-09-17T12:33:13.281Z,5525.00
2023-09-17T12:34:12.285Z,6030.00